createdAt,value
2023-02-10T00:01:20.980Z,29.73
2023-02-10T00:03:49.937Z,25.67
2023-02-10T00:06:19.820Z,28.60
2023-02-10T00:08:50.149Z,37.15
2023-02-10T00:11:18.761Z,32.40
2023-02-10T00:13:47.496Z,26.35
2023-02-10T00:16:17.285Z,37.97
2023-02-10T00:18:46.981Z,33.25
2023-02-10T00:21:17.404Z,37.60
2023-02-10T00:23:46.076Z,40.88
2023-02-10T00:26:15.620Z,35.03
2023-02-10T00:28:43.890Z,40.58
2023-02-10T00:31:13.964Z,35.53
2023-02-10T00:33:42.942Z,41.08
2023-02-10T00:36:15.211Z,34.55
2023-02-10T00:38:44.894Z,36.92
2023-02-10T00:41:15.119Z,35.22
2023-02-10T00:43:44.938Z,35.10
2023-02-10T00:46:15.893Z,32.83
2023-02-10T00:48:44.776Z,39.97
2023-02-10T00:51:15.315Z,38.00
2023-02-10T00:53:44.476Z,42.00
2023-02-10T00:56:12.941Z,37.85
2023-02-10T00:58:41.461Z,36.45
2023-02-10T01:01:09.780Z,34.22
2023-02-10T01:03:38.112Z,39.15
2023-02-10T01:06:07.424Z,40.38
2023-02-10T01:08:37.341Z,43.00
2023-02-10T01:11:07.737Z,39.70
2023-02-10T01:13:36.797Z,35.72
2023-02-10T01:16:07.104Z,38.58
2023-02-10T01:18:35.443Z,35.45
2023-02-10T01:21:09.356Z,38.28
2023-02-10T01:23:39.354Z,36.95
2023-02-10T01:26:07.852Z,36.00
2023-02-10T01:28:36.294Z,44.60
2023-02-10T01:31:08.743Z,38.75
2023-02-10T01:33:37.191Z,38.70
2023-02-10T01:36:07.141Z,43.85
2023-02-10T01:38:35.792Z,33.90
2023-02-10T01:41:06.530Z,31.63
2023-02-10T01:43:35.352Z,37.17
2023-02-10T01:46:03.657Z,31.27
2023-02-10T01:48:32.045Z,29.83
2023-02-10T01:51:06.749Z,36.60
2023-02-10T01:53:35.567Z,33.90
2023-02-10T01:56:05.972Z,33.25
2023-02-10T01:58:36.741Z,32.13
2023-02-10T02:01:05.474Z,37.13
2023-02-10T02:03:34.406Z,35.00
2023-02-10T02:06:02.645Z,32.45
2023-02-10T02:08:33.237Z,33.10
2023-02-10T02:11:14.009Z,39.55
2023-02-10T02:13:57.625Z,29.10
2023-02-10T02:16:37.485Z,35.97
2023-02-10T02:19:18.311Z,34.20
2023-02-10T02:22:23.791Z,34.17
2023-02-10T02:25:22.307Z,32.70
2023-02-10T02:28:18.359Z,30.08
2023-02-10T02:31:04.888Z,33.80
2023-02-10T02:33:38.775Z,32.30
2023-02-10T02:36:11.048Z,30.73
2023-02-10T02:38:43.601Z,31.15
2023-02-10T02:41:12.383Z,31.40
2023-02-10T02:43:41.982Z,36.33
2023-02-10T02:46:14.716Z,38.70
2023-02-10T02:48:57.579Z,34.42
2023-02-10T02:51:38.869Z,32.58
2023-02-10T02:54:18.930Z,31.65
2023-02-10T02:56:51.553Z,38.63
2023-02-10T02:59:25.764Z,33.70
2023-02-10T03:01:58.013Z,31.02
2023-02-10T03:04:30.007Z,37.08
2023-02-10T03:06:58.553Z,31.45
2023-02-10T03:09:26.885Z,40.42
2023-02-10T03:11:55.173Z,43.78
2023-02-10T03:14:23.841Z,41.42
2023-02-10T03:16:52.505Z,39.08
2023-02-10T03:19:20.937Z,34.15
2023-02-10T03:21:50.669Z,31.42
2023-02-10T03:24:19.128Z,39.35
2023-02-10T03:26:47.524Z,37.47
2023-02-10T03:29:17.228Z,34.90
2023-02-10T03:31:46.032Z,41.33
2023-02-10T03:34:14.598Z,34.67
2023-02-10T03:36:43.228Z,33.45
2023-02-10T03:39:13.033Z,27.02
2023-02-10T03:41:41.375Z,27.13
2023-02-10T03:44:09.713Z,28.85
2023-02-10T03:46:38.126Z,33.42
2023-02-10T03:49:07.016Z,33.92
2023-02-10T03:51:35.309Z,30.85
2023-02-10T03:54:03.618Z,32.60
2023-02-10T03:56:33.448Z,33.75
2023-02-10T03:59:02.960Z,31.23
2023-02-10T04:01:31.396Z,30.60
2023-02-10T04:03:59.825Z,25.30
2023-02-10T04:06:28.435Z,26.83
2023-02-10T04:08:56.779Z,27.45
2023-02-10T04:11:25.145Z,26.85
2023-02-10T04:13:54.907Z,30.15
2023-02-10T04:16:28.455Z,26.27
2023-02-10T04:18:57.138Z,30.98
2023-02-10T04:21:26.420Z,24.52
2023-02-10T04:23:55.373Z,27.45
2023-02-10T04:26:23.909Z,28.05
2023-02-10T04:28:52.333Z,27.55
2023-02-10T04:31:22.326Z,23.98
2023-02-10T04:33:50.580Z,31.55
2023-02-10T04:36:18.948Z,31.00
2023-02-10T04:38:47.204Z,27.15
2023-02-10T04:41:15.568Z,25.90
2023-02-10T04:43:43.867Z,30.00
2023-02-10T04:46:12.208Z,30.77
2023-02-10T04:48:41.947Z,28.50
2023-02-10T04:51:10.836Z,28.20
2023-02-10T04:53:39.329Z,29.25
2023-02-10T04:56:08.153Z,37.00
2023-02-10T04:58:36.627Z,31.67
2023-02-10T05:01:04.951Z,28.98
2023-02-10T05:03:33.400Z,22.15
2023-02-10T05:06:09.714Z,23.75
2023-02-10T05:08:42.006Z,25.67
2023-02-10T05:11:10.612Z,28.58
2023-02-10T05:13:39.125Z,24.88
2023-02-10T05:16:08.183Z,24.38
2023-02-10T05:18:37.146Z,27.25
2023-02-10T05:21:07.782Z,25.80
2023-02-10T05:23:36.688Z,25.13
2023-02-10T05:26:05.049Z,26.95
2023-02-10T05:28:34.986Z,29.60
2023-02-10T05:31:04.876Z,26.08
2023-02-10T05:33:33.174Z,25.85
2023-02-10T05:36:01.393Z,26.65
2023-02-10T05:38:31.093Z,25.02
2023-02-10T05:40:59.305Z,33.97
2023-02-10T05:43:27.585Z,28.52
2023-02-10T05:45:56.089Z,30.95
2023-02-10T05:48:25.522Z,23.77
2023-02-10T05:50:53.946Z,25.00
2023-02-10T05:53:22.225Z,31.20
2023-02-10T05:55:51.965Z,26.42
2023-02-10T05:58:20.372Z,42.33
2023-02-10T06:00:48.603Z,31.75
2023-02-10T06:03:16.902Z,26.42
2023-02-10T06:05:46.960Z,28.48
2023-02-10T06:08:15.445Z,27.75
2023-02-10T06:10:43.644Z,28.95
2023-02-10T06:13:13.211Z,30.10
2023-02-10T06:15:41.429Z,28.27
2023-02-10T06:18:09.764Z,29.63
2023-02-10T06:20:38.011Z,32.35
2023-02-10T06:23:06.237Z,28.58
2023-02-10T06:25:36.968Z,28.77
2023-02-10T06:28:05.592Z,31.90
2023-02-10T06:30:35.444Z,25.45
2023-02-10T06:33:03.844Z,31.63
2023-02-10T06:35:34.599Z,32.20
2023-02-10T06:38:02.834Z,25.00
2023-02-10T06:40:31.120Z,32.83
2023-02-10T06:42:59.441Z,40.03
2023-02-10T06:45:27.725Z,32.63
2023-02-10T06:47:57.451Z,31.25
2023-02-10T06:50:25.688Z,36.80
2023-02-10T06:52:53.922Z,34.22
2023-02-10T06:55:22.128Z,34.72
2023-02-10T06:57:50.347Z,36.22
2023-02-10T07:00:18.881Z,34.70
2023-02-10T07:02:49.782Z,36.47
2023-02-10T07:05:19.986Z,32.65
2023-02-10T07:07:48.313Z,33.58
2023-02-10T07:10:16.603Z,37.25
2023-02-10T07:12:44.860Z,36.78
2023-02-10T07:15:13.065Z,31.80
2023-02-10T07:17:41.459Z,34.47
2023-02-10T07:20:10.519Z,39.05
2023-02-10T07:22:40.440Z,36.95
2023-02-10T07:25:11.211Z,39.35
2023-02-10T07:27:40.061Z,40.45
2023-02-10T07:30:09.071Z,34.50
2023-02-10T07:32:37.293Z,39.95
2023-02-10T07:35:06.006Z,43.47
2023-02-10T07:37:34.249Z,36.38
2023-02-10T07:40:03.853Z,31.88
2023-02-10T07:42:35.513Z,36.58
2023-02-10T07:45:05.017Z,34.50
2023-02-10T07:47:33.375Z,40.58
2023-02-10T07:50:01.603Z,37.10
2023-02-10T07:52:29.808Z,39.83
2023-02-10T07:54:59.378Z,38.25
2023-02-10T07:57:29.585Z,36.63
2023-02-10T07:59:57.903Z,39.45
2023-02-10T08:02:26.385Z,41.60
2023-02-10T08:04:56.600Z,39.42
2023-02-10T08:07:27.479Z,43.95
2023-02-10T08:09:55.716Z,39.67
2023-02-10T08:12:23.952Z,42.15
2023-02-10T08:14:56.098Z,44.63
2023-02-10T08:17:24.436Z,41.88
2023-02-10T08:19:52.725Z,44.88
2023-02-10T08:22:20.982Z,39.17
2023-02-10T08:24:49.272Z,40.58
2023-02-10T08:27:17.554Z,42.38
2023-02-10T08:29:45.794Z,39.97
2023-02-10T08:32:19.889Z,55.90
2023-02-10T08:34:48.734Z,49.00
2023-02-10T08:37:17.190Z,40.67
2023-02-10T08:39:45.885Z,47.85
2023-02-10T08:42:14.261Z,42.28
2023-02-10T08:44:42.641Z,44.20
2023-02-10T08:47:12.243Z,46.70
2023-02-10T08:49:41.893Z,45.33
2023-02-10T08:52:10.390Z,40.92
2023-02-10T08:54:38.951Z,42.85
2023-02-10T08:57:07.288Z,49.83
2023-02-10T08:59:35.736Z,45.42
2023-02-10T09:02:04.201Z,47.65
2023-02-10T09:04:32.464Z,41.58
2023-02-10T09:07:02.329Z,43.30
2023-02-10T09:09:30.644Z,44.13
2023-02-10T09:11:58.945Z,43.97
2023-02-10T09:14:27.189Z,47.70
2023-02-10T09:16:55.401Z,41.40
2023-02-10T09:19:24.761Z,41.55
2023-02-10T09:21:53.022Z,47.38
2023-02-10T09:24:22.588Z,46.05
2023-02-10T09:26:50.842Z,41.65
2023-02-10T09:29:19.116Z,40.17
2023-02-10T09:31:47.424Z,48.22
2023-02-10T09:34:15.743Z,51.85
2023-02-10T09:36:44.103Z,47.53
2023-02-10T09:39:12.344Z,43.38
2023-02-10T09:41:50.026Z,57.60
2023-02-10T09:44:21.468Z,52.90
2023-02-10T09:47:11.159Z,55.15
2023-02-10T09:50:14.249Z,57.35
2023-02-10T09:52:53.973Z,46.47
2023-02-10T09:55:29.226Z,48.83
2023-02-10T09:58:02.984Z,52.00
2023-02-10T10:00:34.937Z,43.70
2023-02-10T10:03:07.727Z,43.88
2023-02-10T10:05:44.191Z,37.30
2023-02-10T10:08:21.119Z,49.47
2023-02-10T10:10:51.245Z,39.38
2023-02-10T10:13:25.220Z,43.92
2023-02-10T10:16:10.270Z,39.63
2023-02-10T10:18:46.008Z,41.72
2023-02-10T10:21:22.122Z,41.10
2023-02-10T10:24:06.891Z,47.50
2023-02-10T10:26:50.200Z,40.08
2023-02-10T10:29:41.200Z,42.85
2023-02-10T10:32:18.892Z,41.92
2023-02-10T10:34:53.939Z,42.33
2023-02-10T10:37:25.352Z,45.22
2023-02-10T10:39:56.360Z,46.92
2023-02-10T10:42:28.497Z,43.00
2023-02-10T10:45:08.543Z,39.53
2023-02-10T10:47:43.287Z,43.65
2023-02-10T10:50:15.791Z,45.65
2023-02-10T10:52:46.315Z,51.90
2023-02-10T10:55:20.244Z,44.20
2023-02-10T10:57:48.416Z,43.13
2023-02-10T11:00:23.214Z,52.55
2023-02-10T11:02:59.416Z,49.03
2023-02-10T11:05:31.501Z,48.28
2023-02-10T11:08:00.053Z,50.38
2023-02-10T11:10:33.131Z,43.13
2023-02-10T11:13:04.625Z,51.35
2023-02-10T11:15:39.169Z,45.80
2023-02-10T11:18:09.957Z,43.67
2023-02-10T11:20:38.856Z,48.75
2023-02-10T11:23:16.082Z,49.47
2023-02-10T11:25:48.819Z,54.00
2023-02-10T11:28:21.669Z,54.58
2023-02-10T11:30:59.122Z,52.03
2023-02-10T11:33:30.937Z,50.15
2023-02-10T11:36:04.383Z,52.33
2023-02-10T11:38:37.222Z,55.10
2023-02-10T11:41:16.166Z,53.63
2023-02-10T11:43:47.859Z,52.47
2023-02-10T11:46:29.077Z,66.75
2023-02-10T11:48:58.993Z,59.03
2023-02-10T11:51:27.709Z,55.03
2023-02-10T11:53:57.026Z,64.35
2023-02-10T11:56:50.324Z,62.40
2023-02-10T11:59:30.245Z,69.93
2023-02-10T12:02:05.989Z,74.75
2023-02-10T12:05:01.749Z,68.70
2023-02-10T12:07:40.399Z,64.55
2023-02-10T12:10:16.577Z,73.93
2023-02-10T12:12:48.658Z,60.83
2023-02-10T12:15:29.289Z,57.17
2023-02-10T12:18:27.169Z,61.08
2023-02-10T12:21:15.259Z,65.40
2023-02-10T12:23:59.705Z,59.80
2023-02-10T12:26:32.810Z,58.83
2023-02-10T12:29:19.589Z,56.58
2023-02-10T12:31:59.264Z,54.20
2023-02-10T12:34:45.622Z,55.60
2023-02-10T12:37:22.282Z,57.90
2023-02-10T12:40:00.595Z,60.85
2023-02-10T12:42:42.090Z,56.53
2023-02-10T12:45:19.148Z,62.00
2023-02-10T12:47:58.659Z,64.15
2023-02-10T12:50:41.570Z,56.22
2023-02-10T12:53:16.434Z,51.80
2023-02-10T12:55:54.341Z,54.92
2023-02-10T12:58:27.543Z,59.20
2023-02-10T13:01:01.119Z,58.28
2023-02-10T13:03:33.979Z,49.30
2023-02-10T13:06:19.981Z,54.75
2023-02-10T13:08:53.348Z,57.40
2023-02-10T13:11:35.542Z,60.25
2023-02-10T13:14:11.301Z,59.20
2023-02-10T13:16:40.568Z,62.85
2023-02-10T13:19:23.092Z,55.58
2023-02-10T13:21:59.867Z,53.58
2023-02-10T13:24:42.432Z,56.33
2023-02-10T13:27:26.237Z,55.08
2023-02-10T13:30:06.839Z,51.95
2023-02-10T13:32:53.361Z,57.30
2023-02-10T13:35:25.731Z,52.00
2023-02-10T13:37:57.529Z,45.30
2023-02-10T13:40:28.416Z,57.88
2023-02-10T13:42:59.174Z,49.67
2023-02-10T13:45:29.284Z,55.20
2023-02-10T13:47:59.569Z,45.83
2023-02-10T13:50:32.151Z,52.05
2023-02-10T13:53:06.040Z,52.95
2023-02-10T13:55:46.449Z,55.13
2023-02-10T13:58:32.238Z,48.65
2023-02-10T14:01:00.781Z,52.92
2023-02-10T14:03:31.789Z,56.08
2023-02-10T14:06:02.305Z,54.63
2023-02-10T14:08:53.356Z,50.72
2023-02-10T14:11:32.770Z,47.47
2023-02-10T14:14:03.569Z,49.50
2023-02-10T14:16:34.029Z,54.85
2023-02-10T14:19:06.711Z,50.05
2023-02-10T14:21:41.298Z,44.67
2023-02-10T14:24:26.310Z,52.95
2023-02-10T14:26:59.374Z,44.63
2023-02-10T14:29:30.382Z,51.90
2023-02-10T14:32:00.785Z,48.85
2023-02-10T14:34:31.665Z,42.92
2023-02-10T14:37:02.248Z,44.95
2023-02-10T14:39:33.221Z,48.65
2023-02-10T14:42:06.069Z,47.10
2023-02-10T14:44:41.156Z,49.30
2023-02-10T14:47:18.519Z,46.40
2023-02-10T14:49:50.646Z,46.60
2023-02-10T14:52:36.405Z,44.60
2023-02-10T14:58:06.133Z,40.07
2023-02-10T15:00:35.553Z,43.58
2023-02-10T15:03:05.706Z,48.22
2023-02-10T15:05:42.311Z,49.45
2023-02-10T15:08:18.257Z,43.00
2023-02-10T15:10:51.020Z,45.65
2023-02-10T15:13:29.176Z,45.35
2023-02-10T15:15:58.348Z,49.03
2023-02-10T15:18:29.846Z,47.53
2023-02-10T15:21:03.037Z,58.00
2023-02-10T15:23:34.980Z,47.08
2023-02-10T15:26:18.301Z,48.20
2023-02-10T15:28:48.343Z,50.72
2023-02-10T15:31:27.300Z,51.83
2023-02-10T15:34:13.593Z,49.65
2023-02-10T15:36:48.621Z,55.17
2023-02-10T15:39:28.566Z,53.30
2023-02-10T15:42:08.947Z,57.38
2023-02-10T15:44:40.815Z,51.22
2023-02-10T15:47:44.369Z,56.28
2023-02-10T15:50:21.704Z,55.35
2023-02-10T15:52:50.850Z,63.25
2023-02-10T15:55:33.781Z,58.45
2023-02-10T15:58:08.298Z,55.83
2023-02-10T16:00:39.768Z,51.15
2023-02-10T16:03:11.107Z,110.95
2023-02-10T16:05:43.635Z,143.57
2023-02-10T16:08:23.031Z,69.65
2023-02-10T16:10:51.821Z,60.35
2023-02-10T16:13:20.282Z,46.75
2023-02-10T16:15:52.456Z,53.70
2023-02-10T16:18:24.443Z,60.97
2023-02-10T16:20:53.042Z,52.30
2023-02-10T16:23:22.235Z,55.13
2023-02-10T16:25:51.603Z,48.63
2023-02-10T16:28:21.203Z,49.80
2023-02-10T16:30:54.390Z,46.78
2023-02-10T16:33:25.621Z,51.75
2023-02-10T16:35:54.846Z,54.45
2023-02-10T16:38:27.463Z,51.75
2023-02-10T16:41:02.294Z,49.90
2023-02-10T16:43:34.085Z,53.53
2023-02-10T16:46:04.466Z,57.88
2023-02-10T16:48:32.959Z,55.00
2023-02-10T16:51:01.513Z,51.80
2023-02-10T16:53:30.010Z,54.80
2023-02-10T16:55:58.557Z,48.90
2023-02-10T16:58:27.214Z,46.05
2023-02-10T17:00:58.687Z,43.17
2023-02-10T17:03:28.568Z,40.15
2023-02-10T17:05:57.165Z,49.70
2023-02-10T17:08:25.720Z,43.00
2023-02-10T17:10:56.914Z,33.22
2023-02-10T17:13:25.246Z,53.72
2023-02-10T17:15:53.658Z,60.58
2023-02-10T17:18:22.123Z,58.40
2023-02-10T17:20:52.230Z,45.20
2023-02-10T17:23:24.018Z,54.97
2023-02-10T17:25:55.758Z,48.80
2023-02-10T17:28:31.820Z,46.15
2023-02-10T17:31:09.670Z,42.33
2023-02-10T17:33:38.142Z,44.83
2023-02-10T17:36:08.764Z,40.58
2023-02-10T17:39:08.821Z,48.70
2023-02-10T17:41:39.880Z,40.03
2023-02-10T17:44:08.390Z,36.17
2023-02-10T17:46:36.901Z,35.05
2023-02-10T17:49:05.211Z,44.67
2023-02-10T17:51:35.124Z,51.92
2023-02-10T17:54:10.803Z,66.32
2023-02-10T17:56:39.301Z,45.38
2023-02-10T17:59:07.649Z,65.85
2023-02-10T18:01:36.196Z,37.03
2023-02-10T18:04:04.905Z,56.17
2023-02-10T18:06:43.754Z,43.15
2023-02-10T18:09:12.879Z,33.97
2023-02-10T18:11:41.845Z,37.25
2023-02-10T18:14:13.298Z,37.60
2023-02-10T18:16:41.699Z,35.38
2023-02-10T18:19:10.528Z,31.67
2023-02-10T18:21:40.328Z,32.85
2023-02-10T18:24:11.893Z,27.05
2023-02-10T18:26:52.637Z,28.38
2023-02-10T18:29:25.843Z,31.75
2023-02-10T18:31:57.134Z,30.27
2023-02-10T18:34:28.578Z,27.42
2023-02-10T18:37:04.547Z,30.20
2023-02-10T18:39:35.809Z,26.33
2023-02-10T18:42:09.084Z,24.52
2023-02-10T18:44:44.083Z,30.95
2023-02-10T18:47:12.416Z,29.75
2023-02-10T18:49:49.589Z,26.83
2023-02-10T18:52:27.273Z,26.45
2023-02-10T18:54:55.905Z,26.80
2023-02-10T18:57:27.578Z,30.48
2023-02-10T19:00:14.918Z,28.48
2023-02-10T19:02:43.694Z,30.02
2023-02-10T19:05:12.198Z,26.38
2023-02-10T19:07:48.249Z,29.33
2023-02-10T19:10:24.526Z,32.67
2023-02-10T19:12:55.119Z,23.95
2023-02-10T19:15:30.737Z,27.92
2023-02-10T19:18:02.248Z,31.25
2023-02-10T19:20:31.075Z,28.33
2023-02-10T19:23:21.089Z,26.63
2023-02-10T19:26:10.908Z,27.77
2023-02-10T19:28:42.953Z,31.23
2023-02-10T19:31:16.602Z,39.47
2023-02-10T19:33:47.774Z,53.22
2023-02-10T19:36:23.577Z,37.15
2023-02-10T19:38:53.548Z,35.22
2023-02-10T19:41:24.824Z,34.95
2023-02-10T19:43:59.845Z,34.95
2023-02-10T19:46:34.009Z,43.70
2023-02-10T19:49:22.237Z,42.15
2023-02-10T19:51:51.086Z,36.10
2023-02-10T19:54:30.394Z,36.97
2023-02-10T19:57:06.922Z,36.78
2023-02-10T19:59:36.020Z,39.05
2023-02-10T20:02:31.597Z,40.55
2023-02-10T20:05:33.682Z,41.08
2023-02-10T20:08:39.836Z,35.80
2023-02-10T20:11:35.224Z,42.65
2023-02-10T20:14:38.146Z,38.17
2023-02-10T20:17:20.610Z,50.72
2023-02-10T20:20:10.175Z,47.58
2023-02-10T20:23:14.414Z,47.45
2023-02-10T20:26:12.179Z,48.30
2023-02-10T20:29:04.588Z,40.00
2023-02-10T20:31:53.051Z,44.63
2023-02-10T20:34:59.684Z,45.08
2023-02-10T20:37:59.777Z,46.03
2023-02-10T20:40:54.889Z,44.80
2023-02-10T20:43:56.801Z,47.67
2023-02-10T20:47:04.569Z,46.95
2023-02-10T20:53:39.232Z,55.20
2023-02-10T20:56:37.696Z,53.00
2023-02-10T20:59:12.699Z,53.63
2023-02-10T21:01:42.948Z,91.47
2023-02-10T21:04:15.823Z,67.93
2023-02-10T21:06:53.174Z,47.03
2023-02-10T21:09:36.424Z,49.55
2023-02-10T21:12:14.886Z,50.15
2023-02-10T21:14:52.102Z,55.47
2023-02-10T21:17:30.886Z,57.13
2023-02-10T21:20:19.886Z,61.92
2023-02-10T21:23:02.134Z,59.63
2023-02-10T21:26:01.332Z,59.22
2023-02-10T21:29:02.097Z,61.22
2023-02-10T21:31:40.682Z,45.38
2023-02-10T21:34:12.866Z,53.85
2023-02-10T21:36:55.011Z,54.58
2023-02-10T21:39:30.401Z,56.08
2023-02-10T21:42:04.459Z,50.97
2023-02-10T21:44:44.119Z,59.25
2023-02-10T21:47:16.390Z,61.22
2023-02-10T21:49:45.085Z,61.20
2023-02-10T21:52:26.860Z,69.68
2023-02-10T21:55:09.920Z,68.10
2023-02-10T21:58:20.701Z,61.92
2023-02-10T22:01:08.062Z,60.72
2023-02-10T22:03:53.154Z,57.40
2023-02-10T22:07:01.819Z,64.95
2023-02-10T22:10:01.229Z,63.28
2023-02-10T22:12:29.933Z,58.50
2023-02-10T22:15:08.815Z,60.47
2023-02-10T22:17:41.036Z,54.88
2023-02-10T22:20:31.198Z,59.42
2023-02-10T22:23:03.820Z,52.47
2023-02-10T22:25:54.233Z,51.90
2023-02-10T22:28:40.698Z,52.78
2023-02-10T22:31:17.752Z,57.67
2023-02-10T22:33:47.009Z,54.75
2023-02-10T22:36:32.545Z,57.90
2023-02-10T22:39:14.079Z,54.72
2023-02-10T22:41:46.915Z,55.63
2023-02-10T22:44:19.914Z,57.72
2023-02-10T22:46:54.964Z,56.58
2023-02-10T22:49:45.358Z,52.10
2023-02-10T22:52:25.707Z,54.20
2023-02-10T22:54:58.421Z,47.83
2023-02-10T22:57:31.446Z,49.05
2023-02-10T23:00:06.469Z,43.03
2023-02-10T23:02:35.791Z,45.83
2023-02-10T23:05:08.251Z,49.13
2023-02-10T23:07:36.848Z,44.08
2023-02-10T23:10:11.036Z,42.92
2023-02-10T23:12:41.581Z,51.75
2023-02-10T23:15:15.167Z,42.15
2023-02-10T23:18:17.293Z,41.70
2023-02-10T23:20:47.183Z,43.15
2023-02-10T23:23:16.190Z,43.10
2023-02-10T23:25:49.201Z,49.30
2023-02-10T23:28:27.492Z,51.42
2023-02-10T23:30:59.402Z,37.88
2023-02-10T23:33:34.448Z,50.72
2023-02-10T23:36:06.462Z,42.53
2023-02-10T23:38:36.280Z,41.03
2023-02-10T23:41:08.435Z,47.15
2023-02-10T23:43:51.270Z,43.60
2023-02-10T23:46:42.821Z,51.88
2023-02-10T23:49:34.573Z,47.50
2023-02-10T23:52:11.616Z,51.60
2023-02-10T23:54:40.163Z,51.67
2023-02-10T23:57:12.462Z,46.47
2023-02-10T23:59:51.541Z,53.63
